Latest Weather Observations for Renmark Airport

IDS60801

Issued at 10:35 am CDT Sunday 23 November 2014 (issued every 30 minutes, with the page automatically refreshed every 10 minutes)

About weather observations | Map of weather stations | Latest weather observations for SA | Other Formats
Station Details ID: 024048 Name: RENMARK AERO Lat: -34.20 Lon: 140.68 Height: 31.5 m
Data from the previous 72 hours. | See also: Recent months at Renmark Airport
Date/Time
CDT
Temp
°C
App
Temp
°C
Dew
Point
Rel
Hum
%
Delta-T
°C
Wind Press
QNH
hPa
Press
MSL
hPa
Rain
since 9 am
mm
Dir
 
Spd
km/h
Gust
km/h
Spd
kts
Gust
kts
23/10:30am 23.0 21.2 10.8 46 6.8 E 11 17 6 9 1012.9 1012.8 0.0
23/10:00am 22.3 21.4 10.8 48 6.3 E 6 17 3 9 1013.6 1013.5 0.0
23/09:30am 21.1 19.5 11.4 54 5.4 S 11 17 6 9 1013.6 1013.5 0.0
23/09:00am 19.5 18.4 11.8 61 4.3 SSE 9 19 5 10 1013.7 1013.6 0.0
23/08:30am 18.5 16.3 12.0 66 3.6 S 15 22 8 12 1013.3 1013.2 0.0
23/08:00am 17.8 15.0 12.5 71 2.9 SSE 19 26 10 14 1012.8 1012.7 0.0
23/07:30am 16.7 14.0 12.8 78 2.2 SSE 19 22 10 12 1012.8 1012.7 0.0
23/07:00am 16.0 14.5 13.1 83 1.6 S 13 20 7 11 1012.5 1012.4 0.0
23/06:30am 15.4 14.1 13.6 89 1.0 S 13 17 7 9 1012.1 1012.0 0.0
23/06:00am 15.0 14.5 13.9 93 0.6 S 9 15 5 8 1011.7 1011.6 0.0
23/05:30am 15.2 14.3 13.6 90 0.9 S 11 17 6 9 1011.4 1011.3 0.0
23/05:00am 15.5 14.0 13.2 86 1.3 S 13 19 7 10 1011.5 1011.4 0.0
23/04:30am 15.8 14.2 12.7 82 1.7 SSW 13 19 7 10 1011.7 1011.6 0.0
23/04:00am 16.1 14.6 11.9 76 2.3 SSW 11 15 6 8 1011.7 1011.6 0.0
23/03:30am 16.4 15.1 11.1 71 2.9 SSW 9 15 5 8 1011.4 1011.3 0.0
23/03:00am 16.8 14.6 10.9 68 3.2 SSW 13 20 7 11 1010.7 1010.6 0.0
23/02:30am 17.3 14.8 10.9 66 3.4 S 15 22 8 12 1010.5 1010.4 0.0
23/02:00am 17.7 15.2 11.0 65 3.6 S 15 20 8 11 1010.8 1010.7 0.0
23/01:30am 18.1 16.1 11.4 65 3.7 S 13 20 7 11 1011.2 1011.1 0.0
23/01:00am 18.6 15.9 11.7 64 3.8 S 17 22 9 12 1011.3 1011.2 0.0
23/12:30am 19.1 16.0 12.1 64 3.9 S 20 30 11 16 1011.3 1011.2 0.0
23/12:00am 19.7 17.2 13.6 68 3.5 SSW 19 30 10 16 1010.8 1010.7 0.0
 
Date/Time
CDT
Temp
°C
App
Temp
°C
Dew
Point
Rel
Hum
%
Delta-T
°C
Wind Press
QNH
hPa
Press
MSL
hPa
Rain
since 9 am
mm
Dir
 
Spd
km/h
Gust
km/h
Spd
kts
Gust
kts
22/11:30pm 20.7 17.9 14.4 67 3.7 SSW 22 33 12 18 1010.4 1010.3 0.0
22/11:00pm 22.0 19.4 15.8 68 3.7 SSW 24 35 13 19 1010.1 1010.0 0.0
22/10:30pm 23.6 20.9 15.6 61 4.8 SSW 24 32 13 17 1009.7 1009.6 0.0
22/10:00pm 24.9 22.0 15.2 54 5.8 S 24 35 13 19 1008.9 1008.8 0.0
22/09:30pm 25.7 23.4 14.2 49 6.8 S 19 28 10 15 1008.4 1008.3 0.0
22/09:00pm 26.2 23.3 12.3 42 8.0 S 19 26 10 14 1007.9 1007.8 0.0
22/08:30pm 26.8 23.3 12.1 40 8.5 S 22 32 12 17 1007.3 1007.2 0.0
22/08:00pm 27.3 23.9 12.5 40 8.6 S 22 30 12 16 1006.7 1006.6 0.0
22/07:30pm 28.4 24.2 12.3 37 9.4 S 26 35 14 19 1006.1 1006.0 0.0
22/07:00pm 29.5 24.3 11.5 33 10.4 SSE 30 39 16 21 1005.7 1005.6 0.0
22/06:30pm 32.4 27.9 9.9 25 12.9 ESE 24 30 13 16 1005.3 1005.2 0.0
22/06:00pm 32.5 26.6 10.5 26 12.7 SSE 32 43 17 23 1005.0 1004.9 0.0
22/05:30pm 32.6 26.5 10.6 26 12.8 SSE 33 41 18 22 1004.7 1004.6 0.0
22/05:00pm 32.1 25.9 10.2 26 12.6 SSE 33 44 18 24 1004.4 1004.3 0.0
22/04:30pm 32.5 26.0 10.5 26 12.7 SSE 35 48 19 26 1004.6 1004.5 0.0
22/04:14pm 33.2 26.0 10.5 25 13.1 S 39 46 21 25 1004.4 1004.3 0.0
22/04:00pm 35.1 29.5 8.8 20 15.0 SE 28 35 15 19 1004.4 1004.3 0.0
22/03:30pm 33.4 28.4 9.4 23 13.7 ESE 26 33 14 18 1004.7 1004.6 0.0
22/03:00pm 33.5 28.7 10.2 24 13.5 E 26 33 14 18 1005.1 1005.0 0.0
22/02:30pm 33.6 29.0 10.9 25 13.3 ESE 26 35 14 19 1005.5 1005.4 0.0
22/02:00pm 32.8 26.8 10.2 25 13.0 SE 32 44 17 24 1005.7 1005.6 0.0
22/01:30pm 31.6 26.3 9.8 26 12.4 SE 28 39 15 21 1006.7 1006.6 0.0
22/01:00pm 31.1 26.1 11.0 29 11.6 SE 28 39 15 21 1007.4 1007.3 0.0
22/12:30pm 29.3 24.5 11.8 34 10.2 ESE 28 37 15 20 1007.5 1007.4 0.0
22/12:00pm 28.8 23.9 11.4 34 10.0 ESE 28 35 15 19 1008.1 1008.0 0.0
22/11:30am 28.0 23.8 11.1 35 9.7 E 24 32 13 17 1008.4 1008.3 0.0
22/11:00am 26.2 21.2 10.8 38 8.7 SSE 28 35 15 19 1009.5 1009.4 0.0
22/10:30am 26.5 22.8 8.0 31 10.0 SE 17 20 9 11 1009.4 1009.3 0.0
22/10:00am 25.9 22.3 9.7 36 8.9 ENE 19 22 10 12 1009.2 1009.1 0.0
22/09:30am 25.7 23.5 6.3 29 10.1 N 7 11 4 6 1009.9 1009.8 0.0
22/09:00am 26.0 23.2 5.0 26 10.7 NE 9 19 5 10 1009.0 1008.9 0.0
22/08:30am 24.1 21.3 6.8 33 9.0 NNE 11 17 6 9 1009.2 1009.1 0.0
22/08:00am 22.6 18.7 7.2 37 8.0 NE 17 24 9 13 1008.7 1008.6 0.0
22/07:30am 21.0 19.0 8.6 45 6.5 NE 9 9 5 5 1008.5 1008.4 0.0
22/07:00am 20.4 18.2 7.7 44 6.5 NE 9 15 5 8 1008.2 1008.1 0.0
22/06:30am 18.2 16.2 8.7 54 4.9 NE 9 11 5 6 1008.1 1008.0 0.0
22/06:00am 17.3 14.5 8.7 57 4.4 ENE 13 15 7 8 1007.7 1007.6 0.0
22/05:30am 17.3 14.5 8.4 56 4.6 NE 13 19 7 10 1007.8 1007.7 0.0
22/05:00am 17.9 14.6 7.9 52 5.1 NE 15 17 8 9 1008.1 1008.0 0.0
22/04:30am 17.8 14.9 8.1 53 5.0 ENE 13 17 7 9 1008.1 1008.0 0.0
22/04:00am 16.8 13.3 8.8 59 4.1 NE 17 19 9 10 1007.8 1007.7 0.0
22/03:30am 17.4 14.4 9.1 58 4.3 NE 15 19 8 10 1008.1 1008.0 0.0
22/03:00am 16.9 14.8 9.8 63 3.7 NE 11 13 6 7 1008.7 1008.6 0.0
22/02:30am 16.7 14.1 10.8 68 3.2 NNE 15 17 8 9 1008.6 1008.5 0.0
22/02:00am 16.4 16.6 14.8 90 0.9 E 7 7 4 4 1009.1 1009.0 0.0
22/01:30am 16.8 16.6 12.9 78 2.2 E 6 7 3 4 1009.4 1009.3 0.0
22/01:00am 18.5 17.3 10.3 59 4.4 E 7 9 4 5 1009.5 1009.4 0.0
22/12:30am 17.0 17.9 14.1 83 1.7 E 2 6 1 3 1009.7 1009.6 0.0
22/12:00am 18.1 18.9 12.5 70 3.1 CALM 0 6 0 3 1010.1 1010.0 0.0
 
Date/Time
CDT
Temp
°C
App
Temp
°C
Dew
Point
Rel
Hum
%
Delta-T
°C
Wind Press
QNH
hPa
Press
MSL
hPa
Rain
since 9 am
mm
Dir
 
Spd
km/h
Gust
km/h
Spd
kts
Gust
kts
21/11:30pm 17.7 18.8 13.6 77 2.3 CALM 0 0 0 0 1010.3 1010.2 0.0
21/11:00pm 18.2 19.9 15.1 82 1.8 CALM 0 0 0 0 1010.6 1010.5 0.0
21/10:30pm 19.1 20.7 14.8 76 2.5 CALM 0 4 0 2 1010.9 1010.8 0.0
21/10:00pm 20.2 19.9 12.7 62 4.2 E 6 7 3 4 1011.1 1011.0 0.0
21/09:30pm 21.1 20.0 12.0 56 5.1 SE 9 9 5 5 1011.0 1010.9 0.0
21/09:00pm 21.5 20.7 12.9 58 4.9 ESE 9 11 5 6 1010.8 1010.7 0.0
21/08:30pm 22.8 22.1 11.5 49 6.3 E 6 7 3 4 1010.7 1010.6 0.0
21/08:00pm 25.4 24.8 7.5 32 9.5 CALM 0 6 0 3 1010.6 1010.5 0.0
21/07:30pm 26.8 24.4 6.8 28 10.6 W 9 13 5 7 1010.6 1010.5 0.0
21/07:00pm 27.6 25.2 6.9 27 11.0 WSW 9 13 5 7 1010.5 1010.4 0.0
21/06:30pm 27.8 26.3 6.6 26 11.2 W 4 11 2 6 1010.3 1010.2 0.0
21/06:00pm 27.8 24.3 5.4 24 11.6 W 13 20 7 11 1010.3 1010.2 0.0
21/05:30pm 28.4 24.3 4.6 22 12.2 SW 15 22 8 12 1010.2 1010.1 0.0
21/05:00pm 28.0 23.5 4.3 22 12.0 WSW 17 24 9 13 1010.2 1010.1 0.0
21/04:30pm 27.2 23.7 7.1 28 10.7 WSW 15 24 8 13 1010.2 1010.1 0.0
21/04:00pm 26.8 24.3 9.6 34 9.5 WSW 13 20 7 11 1010.4 1010.3 0.0
21/03:30pm 26.8 24.3 9.6 34 9.5 WSW 13 20 7 11 1010.7 1010.6 0.0
21/03:00pm 25.6 23.1 9.8 37 8.7 WSW 13 22 7 12 1011.2 1011.1 0.0
21/02:30pm 25.5 24.0 9.3 36 8.9 W 7 19 4 10 1011.5 1011.4 0.0
21/02:00pm 24.9 21.5 10.4 40 8.1 SW 19 30 10 16 1012.0 1011.9 0.0
21/01:30pm 24.2 21.9 10.5 42 7.6 SW 13 24 7 13 1012.4 1012.3 0.0
21/01:00pm 23.2 21.6 11.6 48 6.5 WSW 11 20 6 11 1012.7 1012.6 0.0
21/12:30pm 22.0 20.5 10.5 48 6.3 W 9 20 5 11 1013.0 1012.9 0.0
21/12:00pm 21.6 19.7 10.4 49 6.1 WSW 11 17 6 9 1013.2 1013.1 0.0
21/11:30am 21.4 19.7 11.1 52 5.7 WSW 11 17 6 9 1013.5 1013.4 0.0
21/11:00am 21.5 20.2 12.6 57 5.1 WNW 11 20 6 11 1013.7 1013.6 0.0
21/10:30am 20.1 18.2 11.8 59 4.6 W 13 19 7 10 1013.5 1013.4 0.0
21/10:00am 19.0 16.9 11.3 61 4.2 WSW 13 19 7 10 1013.6 1013.5 0.0
21/09:30am 18.6 17.9 12.1 66 3.6 SSE 7 17 4 9 1013.7 1013.6 0.0
21/09:00am 17.8 16.6 11.6 67 3.4 S 9 15 5 8 1013.5 1013.4 12.2
21/08:30am 17.0 15.4 11.5 70 3.0 SSW 11 17 6 9 1013.4 1013.3 12.2
21/08:00am 16.3 14.5 12.1 76 2.3 SSW 13 17 7 9 1013.5 1013.4 12.2
21/07:30am 15.7 14.0 12.6 82 1.7 SSW 13 19 7 10 1013.3 1013.2 12.2
21/07:00am 15.6 14.2 13.4 87 1.2 SSW 13 20 7 11 1012.8 1012.7 12.2
21/06:30am 15.6 16.1 15.0 96 0.3 S 6 9 3 5 1012.0 1011.9 12.2
21/06:00am 15.4 14.9 14.8 96 0.3 SSW 11 13 6 7 1011.8 1011.7 12.2
21/05:30am 15.5 15.1 15.2 98 0.2 SSW 11 17 6 9 1011.4 1011.3 12.2
21/05:00am 15.7 15.9 15.7 100 0.0 SW 9 15 5 8 1011.4 1011.3 12.2
21/04:30am 15.5 15.6 15.5 100 0.0 SW 9 13 5 7 1011.2 1011.1 12.2
21/04:00am 15.0 15.9 15.0 100 0.0 SW 4 7 2 4 1011.1 1011.0 12.2
21/03:30am 14.9 15.2 14.9 100 0.0 SSW 7 9 4 5 1010.8 1010.7 12.2
21/03:00am 15.0 14.9 15.0 100 0.0 SSW 9 15 5 8 1010.8 1010.7 12.2
21/02:30am 14.8 14.6 14.8 100 0.0 SW 9 11 5 6 1010.8 1010.7 12.2
21/02:00am 15.0 14.9 15.0 100 0.0 SW 9 13 5 7 1010.8 1010.7 12.2
21/01:30am 15.3 15.7 15.3 100 0.0 SW 7 11 4 6 1010.9 1010.8 12.2
21/01:00am 15.6 15.4 15.6 100 0.0 SW 11 15 6 8 1011.0 1010.9 12.2
21/12:30am 16.0 15.5 16.0 100 0.0 SW 13 17 7 9 1011.1 1011.0 12.2
21/12:00am 16.3 14.5 15.5 95 0.5 SSW 19 30 10 16 1010.8 1010.7 12.2
 
Date/Time
CDT
Temp
°C
App
Temp
°C
Dew
Point
Rel
Hum
%
Delta-T
°C
Wind Press
QNH
hPa
Press
MSL
hPa
Rain
since 9 am
mm
Dir
 
Spd
km/h
Gust
km/h
Spd
kts
Gust
kts
20/11:30pm 17.0 15.0 16.5 97 0.3 SSW 22 32 12 17 1010.7 1010.6 12.2
20/11:00pm 18.9 19.3 18.9 100 0.0 SW 15 24 8 13 1010.1 1010.0 12.2
20/10:30pm 19.0 19.8 19.0 100 0.0 W 13 15 7 8 1009.8 1009.7 12.2
20/10:00pm 19.1 19.9 19.1 100 0.0 W 13 17 7 9 1009.5 1009.4 12.2
20/09:30pm 19.1 19.9 19.1 100 0.0 W 13 17 7 9 1009.0 1008.9 12.2
20/09:00pm 19.0 19.8 19.0 100 0.0 WNW 13 17 7 9 1008.7 1008.6 12.2
20/08:30pm 19.1 19.5 19.1 100 0.0 NW 15 19 8 10 1008.3 1008.2 12.2
20/08:00pm 19.1 17.8 19.1 100 0.0 W 24 32 13 17 1008.6 1008.5 10.2
20/07:40pm 18.9 15.8 18.9 100 0.0 W 33 52 18 28 1008.5 1008.4 8.4
20/07:37pm 19.0 15.2 19.0 100 0.0 W 37 52 20 28 1008.7 1008.6 6.8
20/07:30pm 22.4 21.2 17.1 72 3.3 WSW 19 52 10 28 1008.4 1008.3 0.0
20/07:00pm 25.2 23.7 15.2 54 6.0 WSW 17 22 9 12 1007.2 1007.1 0.0
20/06:30pm 26.0 23.9 14.8 50 6.7 W 19 26 10 14 1006.8 1006.7 0.0
20/06:00pm 26.4 24.8 15.1 49 6.8 W 17 24 9 13 1006.6 1006.5 0.0
20/05:30pm 26.0 23.4 14.8 50 6.7 W 22 30 12 16 1006.9 1006.8 0.0
20/05:00pm 25.5 22.7 14.3 50 6.7 W 22 30 12 16 1007.1 1007.0 0.0
20/04:30pm 25.4 20.9 13.9 49 6.8 NW 30 41 16 22 1007.7 1007.6 0.0
20/04:00pm 25.0 20.5 13.9 50 6.5 NW 30 41 16 22 1008.0 1007.9 0.0
20/03:30pm 25.1 21.5 14.3 51 6.4 WNW 26 39 14 21 1008.4 1008.3 0.0
20/03:00pm 24.2 20.5 14.9 56 5.6 W 28 37 15 20 1009.0 1008.9 0.0
20/02:30pm 25.4 22.1 15.1 53 6.2 W 26 41 14 22 1009.6 1009.5 0.0
20/02:00pm 26.2 21.2 13.3 45 7.6 WNW 32 50 17 27 1009.4 1009.3 0.0
20/01:30pm 25.4 22.8 13.9 49 6.8 W 20 28 11 15 1009.3 1009.2 0.0
20/01:00pm 25.9 22.1 13.7 47 7.2 W 26 39 14 21 1010.0 1009.9 0.0
20/12:30pm 26.3 22.4 13.4 45 7.6 WSW 26 32 14 17 1009.9 1009.8 0.0
20/12:00pm 26.1 21.4 13.2 44 7.6 SW 30 37 16 20 1009.8 1009.7 0.0
20/11:30am 27.2 22.8 11.7 38 8.9 WSW 26 35 14 19 1009.9 1009.8 0.0
20/11:00am 27.0 22.0 11.1 37 9.0 SW 28 39 15 21 1009.1 1009.0 0.0

Other Formats:

Comma delimited format used in spreadsheet applications
http://www.bom.gov.au/fwo/IDS60801/IDS60801.95687.axf

JavaScript Object Notation format (JSON) in row-major order
http://www.bom.gov.au/fwo/IDS60801/IDS60801.95687.json